Time;durP1;ratioP1;P1;durP2;ratioP2;P2;SDS_P1;SDS_P2;PMS_P1;PMS_P2;Temp;Humidity;BMP_temperature;BMP_pressure;BME280_temperature;BME280_humidity;BME280_pressure;Samples;Min_cycle;Max_cycle;Signal;HPM_P1;HPM_P2
2023/01/18 00:00:29;;;;;;;65.70;33.40;;;;;;;0.16;73.61;97810.58;129685;1251;127976;-63
2023/01/18 00:03:57;;;;;;;59.20;32.60;;;;;;;0.21;73.70;97811.73;129310;1255;113826;-63
2023/01/18 00:07:01;;;;;;;54.70;29.60;;;;;;;0.26;73.78;97804.46;129534;1251;113419;-61
2023/01/18 00:10:07;;;;;;;58.30;28.40;;;;;;;0.32;73.58;97805.24;129302;1256;113540;-62
2023/01/18 00:13:16;;;;;;;54.50;26.90;;;;;;;0.35;73.71;97804.04;129163;1251;113480;-61
2023/01/18 00:16:21;;;;;;;56.30;28.60;;;;;;;0.40;73.65;97800.67;128777;1257;128689;-62
2023/01/18 00:19:27;;;;;;;57.30;30.50;;;;;;;0.41;73.75;97799.70;128846;1251;114873;-62
2023/01/18 00:22:32;;;;;;;68.00;34.00;;;;;;;0.44;73.66;97803.95;128799;1273;114859;-61
2023/01/18 00:25:38;;;;;;;63.70;32.10;;;;;;;0.46;73.73;97799.48;128734;1251;113646;-62
2023/01/18 00:28:44;;;;;;;67.00;30.70;;;;;;;0.48;73.68;97795.56;128799;1251;113250;-61
2023/01/18 00:31:51;;;;;;;54.60;29.40;;;;;;;0.50;73.58;97786.50;128835;1257;126819;-61
2023/01/18 00:34:59;;;;;;;51.70;28.00;;;;;;;0.52;73.57;97791.48;128797;1251;113677;-61
2023/01/18 00:38:06;;;;;;;56.40;29.30;;;;;;;0.53;73.96;97791.09;128893;1258;113890;-62
2023/01/18 00:41:14;;;;;;;54.00;27.00;;;;;;;0.55;73.83;97787.97;128810;1251;113636;-62
2023/01/18 00:44:19;;;;;;;49.90;26.10;;;;;;;0.57;73.65;97787.52;128861;1251;113255;-61
2023/01/18 00:47:28;;;;;;;49.10;28.50;;;;;;;0.59;73.77;97789.33;128852;1256;128082;-62
2023/01/18 00:50:37;;;;;;;53.40;27.20;;;;;;;0.63;73.84;97794.81;128778;1251;114725;-62
2023/01/18 00:53:46;;;;;;;56.00;28.50;;;;;;;0.67;74.02;97793.02;128766;1256;113175;-62
2023/01/18 00:56:54;;;;;;;53.20;27.70;;;;;;;0.70;74.17;97795.49;128990;1251;113995;-61
2023/01/18 01:00:01;;;;;;;52.80;26.70;;;;;;;0.75;73.91;97795.98;128863;1251;113304;-61
2023/01/18 01:03:14;;;;;;;47.90;26.80;;;;;;;0.79;74.28;97793.29;128841;1256;128406;-61
2023/01/18 01:06:44;;;;;;;51.50;26.60;;;;;;;0.83;74.18;97783.42;128886;1255;115004;-61
2023/01/18 01:09:50;;;;;;;45.10;24.70;;;;;;;0.86;73.96;97768.51;128877;1257;113253;-61
2023/01/18 01:26:48;;;;;;;50.20;28.20;;;;;;;1.00;74.36;97754.13;129058;1251;113142;-60
2023/01/18 01:29:53;;;;;;;58.20;30.60;;;;;;;1.01;74.31;97746.67;128848;1256;114703;-60
2023/01/18 01:32:59;;;;;;;54.20;29.10;;;;;;;1.03;74.18;97739.39;129009;1251;113223;-59
2023/01/18 01:36:14;;;;;;;44.90;26.40;;;;;;;1.02;74.04;97737.48;128922;1255;127986;-61
2023/01/18 01:39:18;;;;;;;;;;;;;;;1.02;73.97;97737.12;128932;1254;115365;-60
2023/01/18 01:42:27;;;;;;;55.70;31.80;;;;;;;1.01;74.11;97742.63;128837;1257;113462;-60
2023/01/18 01:45:39;;;;;;;54.90;32.00;;;;;;;1.00;74.15;97740.55;128799;1251;113198;-60
2023/01/18 01:48:46;;;;;;;54.30;30.90;;;;;;;1.00;74.02;97740.39;129009;1251;113459;-62
2023/01/18 01:52:03;;;;;;;52.80;29.90;;;;;;;1.00;74.19;97739.84;128948;1257;127888;-61
2023/01/18 01:55:24;;;;;;;54.80;30.40;;;;;;;1.00;73.89;97737.06;129248;1251;114702;-61
2023/01/18 01:58:31;;;;;;;54.30;29.60;;;;;;;1.00;73.91;97737.41;129371;1255;113174;-60
2023/01/18 02:01:38;;;;;;;55.90;30.40;;;;;;;0.99;73.99;97739.05;129252;1250;113197;-63
2023/01/18 02:04:53;;;;;;;52.30;29.40;;;;;;;0.98;73.90;97736.79;129209;1251;114065;-60
2023/01/18 02:08:01;;;;;;;55.50;29.30;;;;;;;0.98;74.20;97738.59;128934;1251;126688;-61
2023/01/18 02:11:08;;;;;;;50.80;27.50;;;;;;;0.97;73.96;97731.77;128930;1251;115977;-61
2023/01/18 02:14:17;;;;;;;61.60;32.90;;;;;;;0.98;74.22;97733.13;128752;1256;114575;-62
2023/01/18 02:17:52;;;;;;;61.80;34.20;;;;;;;0.98;73.94;97726.60;128873;1254;113249;-61
2023/01/18 02:21:01;;;;;;;60.60;32.40;;;;;;;0.98;74.13;97733.14;129195;1251;114035;-61
2023/01/18 02:24:14;;;;;;;57.80;33.30;;;;;;;0.96;74.31;97736.55;129113;1257;128957;-60
2023/01/18 02:27:42;;;;;;;60.40;34.20;;;;;;;0.96;74.11;97735.00;129053;1251;115365;-62
2023/01/18 02:31:00;;;;;;;62.50;32.00;;;;;;;0.94;74.24;97725.58;129244;1256;114085;-61
2023/01/18 02:34:17;;;;;;;58.30;31.90;;;;;;;0.95;74.27;97722.73;129247;1251;113175;-61
2023/01/18 02:38:08;;;;;;;58.40;32.10;;;;;;;0.97;74.41;97727.04;129167;1251;114531;-62
2023/01/18 02:41:20;;;;;;;59.40;33.50;;;;;;;0.98;74.14;97732.78;129104;1251;129616;-64
2023/01/18 02:47:56;;;;;;;55.30;30.00;;;;;;;1.03;74.38;97743.44;128957;1255;113217;-61
2023/01/18 02:51:02;;;;;;;54.70;29.10;;;;;;;1.06;74.35;97747.63;128857;1251;113469;-60
2023/01/18 02:54:10;;;;;;;55.50;29.80;;;;;;;1.10;74.36;97748.33;128790;1250;113439;-60
2023/01/18 02:57:20;;;;;;;58.50;30.10;;;;;;;1.13;74.41;97748.67;128964;1251;126787;-62
2023/01/18 03:00:25;;;;;;;52.70;30.10;;;;;;;1.17;74.15;97750.24;129031;1254;114719;-61
2023/01/18 03:03:30;;;;;;;51.00;28.80;;;;;;;1.22;74.32;97746.98;128966;1256;113244;-61
2023/01/18 03:06:35;;;;;;;53.00;31.70;;;;;;;1.26;74.20;97743.07;129287;1256;113657;-64
2023/01/18 03:09:41;;;;;;;59.10;32.30;;;;;;;1.31;74.53;97744.24;129144;1251;113845;-61
2023/01/18 03:12:59;;;;;;;58.60;32.80;;;;;;;1.35;74.42;97743.86;128923;1257;126904;-61
2023/01/18 03:16:09;;;;;;;54.70;31.80;;;;;;;1.40;74.36;97748.00;128868;1255;115931;-63
2023/01/18 03:26:24;;;;;;;55.50;30.10;;;;;;;1.51;74.52;97756.68;128975;1257;113117;-62
2023/01/18 03:36:36;;;;;;;50.10;27.60;;;;;;;1.65;74.41;97754.38;128931;1257;113528;-61
2023/01/18 03:39:50;;;;;;;46.60;27.90;;;;;;;1.69;74.32;97747.46;128986;1251;113248;-61
2023/01/18 03:43:07;;;;;;;45.20;26.10;;;;;;;1.74;73.98;97751.59;128877;1251;113364;-63
2023/01/18 03:46:22;;;;;;;47.20;25.50;;;;;;;1.80;74.19;97752.33;128982;1256;128774;-62
2023/01/18 03:49:26;;;;;;;51.70;26.40;;;;;;;1.85;74.14;97749.25;129001;1256;115405;-61
2023/01/18 03:52:36;;;;;;;46.70;26.30;;;;;;;1.90;74.41;97747.05;128911;1256;113497;-61
2023/01/18 03:55:52;;;;;;;46.20;26.90;;;;;;;1.95;74.11;97747.10;128873;1256;114899;-61
2023/01/18 03:59:03;;;;;;;44.70;24.20;;;;;;;2.01;74.24;97745.88;128831;1260;114012;-61
2023/01/18 04:02:09;;;;;;;49.60;26.50;;;;;;;2.06;74.36;97739.65;128692;1256;127505;-61
2023/01/18 04:05:16;;;;;;;45.20;25.60;;;;;;;2.09;74.39;97737.71;128794;1257;114766;-61
2023/01/18 04:08:22;;;;;;;40.50;23.20;;;;;;;2.12;74.25;97739.64;128998;1255;113158;-62
2023/01/18 04:11:27;;;;;;;46.90;25.30;;;;;;;2.15;74.41;97740.73;129027;1256;113225;-61
2023/01/18 04:14:34;;;;;;;39.10;24.80;;;;;;;2.17;74.59;97728.08;129099;1251;113679;-61
2023/01/18 04:17:40;;;;;;;45.50;24.60;;;;;;;2.20;74.60;97721.92;128960;1251;127728;-62
2023/01/18 04:20:55;;;;;;;46.40;25.60;;;;;;;2.22;74.83;97712.16;128941;1257;115376;-61
2023/01/18 04:24:10;;;;;;;45.20;25.40;;;;;;;2.22;74.83;97706.30;128772;1256;113568;-66
2023/01/18 04:27:16;;;;;;;44.80;25.40;;;;;;;2.20;74.83;97698.52;128879;1251;113202;-64
2023/01/18 04:30:22;;;;;;;48.00;26.40;;;;;;;2.17;75.20;97695.48;128824;1251;113116;-61
2023/01/18 04:33:30;;;;;;;45.80;27.00;;;;;;;2.15;75.39;97694.95;128803;1251;128754;-64
2023/01/18 04:36:35;;;;;;;50.10;27.30;;;;;;;2.15;75.51;97697.76;128826;1256;116007;-64
2023/01/18 04:39:40;;;;;;;42.80;25.00;;;;;;;2.14;75.67;97700.80;128862;1251;113688;-64
2023/01/18 04:42:45;;;;;;;;;;;;;;;2.14;75.71;97714.56;128923;1251;114758;-64
2023/01/18 04:45:54;;;;;;;;;;;;;;;2.11;75.90;97716.61;128787;1251;113496;-64
2023/01/18 04:49:03;;;;;;;46.30;24.30;;;;;;;2.10;76.13;97724.97;128837;1264;127936;-64
2023/01/18 04:52:10;;;;;;;45.20;25.60;;;;;;;2.10;76.31;97718.78;128830;1251;114703;-62
2023/01/18 04:55:16;;;;;;;47.00;27.00;;;;;;;2.12;76.20;97716.44;128924;1256;113367;-64
2023/01/18 04:58:22;;;;;;;52.60;27.50;;;;;;;2.11;76.33;97722.09;128881;1251;113233;-66
2023/01/18 05:01:32;;;;;;;46.90;24.90;;;;;;;2.11;76.42;97736.89;128918;1253;113364;-65
2023/01/18 05:04:39;;;;;;;44.90;27.60;;;;;;;2.10;76.51;97743.96;128864;1251;127884;-64
2023/01/18 05:07:44;;;;;;;48.90;26.70;;;;;;;2.11;76.56;97734.04;128785;1257;114708;-64
2023/01/18 05:10:51;;;;;;;48.90;27.60;;;;;;;2.14;76.53;97734.44;128836;1258;113390;-62
2023/01/18 05:13:59;;;;;;;57.20;29.00;;;;;;;2.16;76.57;97752.81;128716;1256;113430;-63
2023/01/18 05:17:06;;;;;;;45.80;29.80;;;;;;;2.18;76.78;97761.35;128897;1257;113698;-65
2023/01/18 05:20:11;;;;;;;49.70;28.80;;;;;;;2.18;76.71;97764.63;128911;1260;128045;-64
2023/01/18 05:23:16;;;;;;;50.30;28.70;;;;;;;2.20;76.60;97759.30;128911;1251;114726;-64
2023/01/18 05:26:22;;;;;;;51.50;30.00;;;;;;;2.22;76.83;97751.80;128892;1256;113409;-65
2023/01/18 05:29:27;;;;;;;49.70;29.90;;;;;;;2.24;77.04;97748.83;128867;1256;113190;-64
2023/01/18 05:32:35;;;;;;;51.00;28.30;;;;;;;2.24;76.92;97745.10;128988;1251;113422;-62
2023/01/18 05:35:47;;;;;;;83.10;41.20;;;;;;;2.25;76.91;97736.83;129005;1251;128827;-63
2023/01/18 05:38:56;;;;;;;76.10;40.20;;;;;;;2.25;76.90;97734.67;128978;1251;115407;-63
2023/01/18 05:42:04;;;;;;;75.30;38.30;;;;;;;2.27;77.22;97734.59;128785;1257;113626;-65
2023/01/18 05:45:12;;;;;;;68.40;37.90;;;;;;;2.27;77.12;97731.04;129094;1252;113250;-65
2023/01/18 05:48:21;;;;;;;62.80;34.60;;;;;;;2.27;77.15;97727.00;128852;1267;113566;-63
2023/01/18 05:51:28;;;;;;;55.30;33.30;;;;;;;2.27;77.13;97724.19;128996;1264;128644;-63
2023/01/18 05:54:37;;;;;;;62.50;32.70;;;;;;;2.26;77.25;97720.73;128934;1256;114734;-65
2023/01/18 05:57:51;;;;;;;43.10;27.00;;;;;;;2.23;77.37;97719.99;128991;1257;113467;-64
2023/01/18 06:00:57;;;;;;;50.60;28.70;;;;;;;2.19;77.41;97718.48;128956;1256;113185;-64
2023/01/18 06:04:02;;;;;;;48.30;28.60;;;;;;;2.14;77.47;97731.25;129014;1256;114827;-64
2023/01/18 06:07:08;;;;;;;46.20;27.70;;;;;;;2.12;77.52;97735.58;128999;1264;127823;-64
2023/01/18 06:10:13;;;;;;;52.60;30.60;;;;;;;2.09;77.57;97738.56;129134;1257;115313;-61
2023/01/18 06:13:17;;;;;;;61.50;33.90;;;;;;;2.07;77.50;97739.60;129228;1257;113664;-63
2023/01/18 06:16:25;;;;;;;58.20;30.90;;;;;;;2.04;77.71;97744.33;129045;1257;113486;-62
2023/01/18 06:19:31;;;;;;;63.40;37.70;;;;;;;2.01;77.77;97743.77;129098;1257;113517;-61
2023/01/18 06:22:35;;;;;;;56.50;35.40;;;;;;;1.98;77.86;97741.82;129074;1262;127785;-61
2023/01/18 06:25:42;;;;;;;76.40;44.80;;;;;;;1.93;77.82;97738.59;129421;1251;114696;-62
2023/01/18 06:28:47;;;;;;;59.00;30.90;;;;;;;1.87;78.19;97740.48;128949;1259;113271;-62
2023/01/18 06:31:52;;;;;;;60.90;30.00;;;;;;;1.81;78.13;97746.30;129283;1257;113296;-62
2023/01/18 06:35:00;;;;;;;79.50;37.10;;;;;;;1.76;78.18;97745.81;129064;1260;113431;-62
2023/01/18 06:38:12;;;;;;;93.50;41.20;;;;;;;1.74;78.32;97744.57;128723;1251;128243;-63
2023/01/18 06:41:20;;;;;;;69.60;32.50;;;;;;;1.72;78.34;97738.67;128773;1257;113759;-62
2023/01/18 06:44:26;;;;;;;90.00;38.60;;;;;;;1.67;78.79;97734.38;128926;1256;114287;-62
2023/01/18 06:47:32;;;;;;;72.70;38.40;;;;;;;1.61;78.76;97727.30;130040;1256;114447;-61
2023/01/18 06:50:38;;;;;;;89.30;37.60;;;;;;;1.58;78.86;97723.12;128779;1257;113380;-61
2023/01/18 06:53:44;;;;;;;55.70;27.90;;;;;;;1.52;79.06;97723.38;128816;1261;128865;-62
2023/01/18 06:56:51;;;;;;;57.30;30.80;;;;;;;1.49;79.15;97721.13;128968;1255;116034;-62
2023/01/18 06:59:57;;;;;;;61.20;34.80;;;;;;;1.47;79.51;97714.35;128848;1257;113540;-63
2023/01/18 07:03:03;;;;;;;65.40;37.10;;;;;;;1.46;79.54;97715.48;128983;1256;114862;-63
2023/01/18 07:06:07;;;;;;;65.60;36.50;;;;;;;1.45;79.57;97717.63;128810;1257;113451;-62
2023/01/18 07:09:14;;;;;;;58.10;35.00;;;;;;;1.43;79.66;97718.42;129437;1256;126802;-63
2023/01/18 07:12:22;;;;;;;53.90;31.20;;;;;;;1.42;79.70;97716.23;129023;1257;114728;-61
2023/01/18 07:15:31;;;;;;;51.70;30.00;;;;;;;1.43;79.68;97722.85;128971;1258;113511;-62
2023/01/18 07:18:42;;;;;;;49.70;27.30;;;;;;;1.45;79.64;97727.34;128957;1256;113250;-62
2023/01/18 07:21:53;;;;;;;38.30;23.50;;;;;;;1.47;79.94;97726.14;128827;1257;114440;-64
2023/01/18 07:24:59;;;;;;;49.10;25.20;;;;;;;1.49;80.41;97720.20;128813;1264;127924;-65
2023/01/18 07:28:04;;;;;;;37.50;22.40;;;;;;;1.52;80.18;97725.16;128885;1260;115300;-63
2023/01/18 07:31:09;;;;;;;43.10;25.00;;;;;;;1.54;80.20;97728.41;128992;1257;113411;-62
2023/01/18 07:34:15;;;;;;;35.80;22.30;;;;;;;1.56;80.16;97739.02;128992;1252;114860;-65
2023/01/18 07:37:20;;;;;;;36.80;23.30;;;;;;;1.59;80.28;97744.14;128640;1251;113960;-62
2023/01/18 07:40:25;;;;;;;36.80;22.50;;;;;;;1.62;80.41;97744.52;126741;1260;3099897;-61
2023/01/18 07:43:30;;;;;;;;;;;;;;;1.65;80.36;97740.98;128894;1259;130012;-62
2023/01/18 07:46:37;;;;;;;36.80;21.60;;;;;;;1.69;80.53;97731.64;128834;1254;116063;-61
2023/01/18 07:49:42;;;;;;;31.80;17.60;;;;;;;1.73;80.35;97727.38;129414;1257;113286;-62
2023/01/18 07:52:48;;;;;;;36.60;22.30;;;;;;;1.75;80.45;97723.72;128904;1260;113847;-62
2023/01/18 07:56:05;;;;;;;47.50;23.60;;;;;;;1.78;80.63;97741.52;129245;1256;113523;-62
2023/01/18 07:59:14;;;;;;;38.60;22.40;;;;;;;1.81;80.46;97735.59;129155;1268;127665;-62
2023/01/18 08:02:20;;;;;;;39.20;22.50;;;;;;;1.83;80.89;97735.80;128881;1256;115291;-62
2023/01/18 08:05:26;;;;;;;37.30;22.10;;;;;;;1.85;80.58;97736.39;128885;1255;113444;-63
2023/01/18 08:08:35;;;;;;;40.40;23.00;;;;;;;1.88;80.78;97739.73;128757;1251;114826;-63
2023/01/18 08:11:40;;;;;;;44.40;23.80;;;;;;;1.90;80.55;97739.67;128802;1251;113299;-62
2023/01/18 08:14:45;;;;;;;36.40;22.10;;;;;;;1.91;80.73;97739.21;128907;1258;128054;-63
2023/01/18 08:17:50;;;;;;;44.10;25.60;;;;;;;1.92;80.87;97742.48;128823;1257;115851;-62
2023/01/18 08:20:56;;;;;;;56.40;35.00;;;;;;;1.96;80.87;97748.64;128880;1251;114469;-62
2023/01/18 08:24:01;;;;;;;53.70;35.50;;;;;;;1.99;80.90;97760.62;129144;1251;113282;-61
2023/01/18 08:27:06;;;;;;;47.80;26.50;;;;;;;1.99;80.59;97763.44;129003;1251;113273;-62
2023/01/18 08:30:11;;;;;;;;;;;;;;;2.00;80.99;97763.02;128898;1254;127053;-61
2023/01/18 08:33:16;;;;;;;42.60;26.30;;;;;;;2.01;80.95;97767.39;128798;1255;114702;-61
2023/01/18 08:36:23;;;;;;;42.40;26.10;;;;;;;2.01;80.92;97771.77;128823;1257;113262;-61
2023/01/18 08:39:27;;;;;;;46.40;30.20;;;;;;;2.04;81.07;97771.28;129016;1251;113391;-63
2023/01/18 08:42:33;;;;;;;43.60;30.00;;;;;;;2.09;80.98;97782.23;128974;1251;113507;-61
2023/01/18 08:45:40;;;;;;;42.00;27.30;;;;;;;2.14;81.04;97783.40;129288;1255;127818;-61
2023/01/18 08:48:55;;;;;;;40.60;28.00;;;;;;;2.16;81.18;97790.30;128754;1260;115243;-61
2023/01/18 08:52:06;;;;;;;44.30;27.70;;;;;;;2.18;80.82;97791.44;128823;1257;113198;-63
2023/01/18 08:55:15;;;;;;;43.00;27.30;;;;;;;2.22;81.13;97796.67;128831;1257;113175;-62
2023/01/18 08:58:22;;;;;;;40.20;26.40;;;;;;;2.24;80.95;97794.06;128813;1251;113562;-63
2023/01/18 09:01:29;;;;;;;42.40;27.70;;;;;;;2.28;80.95;97787.34;128951;1251;127961;-63
2023/01/18 09:04:41;;;;;;;41.90;27.20;;;;;;;2.36;81.01;97784.98;128856;1265;114530;-62
2023/01/18 09:07:46;;;;;;;43.30;27.90;;;;;;;2.41;81.04;97780.29;129042;1257;113601;-61
2023/01/18 09:10:50;;;;;;;40.00;26.10;;;;;;;2.45;80.96;97781.11;128860;1258;113219;-62
2023/01/18 09:13:55;;;;;;;42.30;26.50;;;;;;;2.46;80.93;97783.52;128857;1257;113623;-61
2023/01/18 09:17:01;;;;;;;37.80;23.60;;;;;;;2.46;80.77;97794.98;128922;1256;127853;-62
2023/01/18 09:20:10;;;;;;;39.10;25.70;;;;;;;2.43;80.63;97804.10;129047;1255;115326;-61
2023/01/18 09:23:21;;;;;;;41.60;26.20;;;;;;;2.43;80.72;97814.85;128942;1251;114896;-62
2023/01/18 09:26:29;;;;;;;41.50;25.00;;;;;;;2.45;80.70;97819.17;128955;1251;113562;-64
2023/01/18 09:29:36;;;;;;;43.70;26.90;;;;;;;2.45;80.92;97823.91;128884;1256;114437;-62
2023/01/18 09:32:45;;;;;;;40.40;25.20;;;;;;;2.47;81.01;97824.70;128940;1251;126903;-62
2023/01/18 09:35:50;;;;;;;42.40;26.80;;;;;;;2.50;80.80;97827.17;128865;1257;115397;-62
2023/01/18 09:38:56;;;;;;;49.40;29.80;;;;;;;2.54;81.05;97824.80;129031;1257;113225;-63
2023/01/18 09:42:03;;;;;;;51.40;30.80;;;;;;;2.61;81.07;97827.23;131954;1251;113823;-63
2023/01/18 09:45:28;;;;;;;54.20;33.00;;;;;;;2.66;80.94;97829.27;129070;1251;115270;-63
2023/01/18 09:48:43;;;;;;;50.30;31.20;;;;;;;2.69;80.78;97826.23;129064;1251;128649;-62
2023/01/18 09:52:24;;;;;;;53.20;32.30;;;;;;;2.72;80.68;97824.31;128960;1251;114514;-63
2023/01/18 09:56:01;;;;;;;50.80;33.20;;;;;;;2.76;80.80;97830.06;129053;1257;113297;-62
2023/01/18 09:59:21;;;;;;;47.90;31.50;;;;;;;2.80;80.81;97827.95;128258;1260;113351;-62
2023/01/18 10:02:37;;;;;;;54.70;33.50;;;;;;;2.81;80.43;97822.26;128258;1259;113379;-64
2023/01/18 10:06:07;;;;;;;55.40;32.70;;;;;;;2.81;80.30;97819.38;128195;1260;128799;-63
2023/01/18 10:09:24;;;;;;;56.30;33.80;;;;;;;2.84;80.46;97818.69;128362;1263;115454;-63
2023/01/18 10:12:36;;;;;;;58.40;36.20;;;;;;;2.89;80.73;97816.27;128488;1264;113630;-63
2023/01/18 10:15:43;;;;;;;60.70;39.30;;;;;;;2.96;80.70;97806.19;128237;1259;113317;-63
2023/01/18 10:18:50;;;;;;;60.70;36.60;;;;;;;2.97;80.39;97804.73;128381;1260;113981;-62
2023/01/18 10:22:08;;;;;;;53.30;35.00;;;;;;;2.97;80.40;97806.52;128452;1263;127728;-62
2023/01/18 10:25:32;;;;;;;57.80;36.40;;;;;;;3.01;80.44;97814.56;128218;1259;115279;-63
2023/01/18 10:28:49;;;;;;;47.60;30.20;;;;;;;3.08;80.60;97818.90;128360;1264;113601;-62
2023/01/18 10:32:21;;;;;;;46.80;30.20;;;;;;;3.12;80.37;97822.38;128282;1260;113499;-63
2023/01/18 10:36:00;;;;;;;40.00;26.30;;;;;;;3.15;80.35;97825.16;128545;1251;113571;-63
2023/01/18 10:39:41;;;;;;;38.30;25.40;;;;;;;3.18;80.32;97826.95;128406;1263;128740;-62
2023/01/18 10:42:50;;;;;;;41.80;27.30;;;;;;;3.17;80.03;97828.41;128284;1260;114911;-62
2023/01/18 10:46:02;;;;;;;44.30;27.70;;;;;;;3.13;80.17;97824.42;128170;1263;114049;-63
2023/01/18 10:49:42;;;;;;;42.60;28.70;;;;;;;3.13;80.08;97821.28;128251;1261;113591;-62
2023/01/18 10:52:48;;;;;;;36.90;26.30;;;;;;;3.14;80.08;97829.66;128233;1259;113372;-63
2023/01/18 10:55:58;;;;;;;37.50;23.20;;;;;;;3.18;80.19;97838.77;128031;1260;128237;-63
2023/01/18 10:59:04;;;;;;;34.70;24.20;;;;;;;3.19;80.26;97836.58;128216;1259;115040;-63
2023/01/18 11:02:29;;;;;;;37.50;24.60;;;;;;;3.23;80.42;97839.20;128394;1264;113427;-64
2023/01/18 11:05:48;;;;;;;36.30;24.80;;;;;;;3.27;80.11;97840.02;128185;1259;113296;-64
2023/01/18 11:08:54;;;;;;;37.20;23.80;;;;;;;3.30;80.32;97841.61;128346;1259;113717;-65
2023/01/18 11:12:33;;;;;;;35.00;22.60;;;;;;;3.32;80.24;97849.37;128141;1260;126588;-64
2023/01/18 11:15:47;;;;;;;30.50;22.70;;;;;;;3.34;80.03;97851.77;128613;1251;113893;-63
2023/01/18 11:19:20;;;;;;;31.60;22.10;;;;;;;3.32;80.03;97851.48;129058;1251;114913;-64
2023/01/18 11:22:32;;;;;;;33.10;22.30;;;;;;;3.34;80.04;97854.73;128913;1257;113288;-63
2023/01/18 11:25:48;;;;;;;28.30;19.00;;;;;;;3.32;79.98;97858.90;128853;1251;113403;-64
2023/01/18 11:29:06;;;;;;;27.00;18.20;;;;;;;3.32;79.84;97861.40;131934;1251;127778;-64
2023/01/18 11:32:32;;;;;;;31.50;20.00;;;;;;;3.30;79.83;97864.16;128836;1254;114686;-63
2023/01/18 11:35:37;;;;;;;26.70;19.10;;;;;;;3.27;79.68;97864.18;129561;1253;113163;-63
2023/01/18 11:38:46;;;;;;;32.20;21.30;;;;;;;3.27;79.80;97864.55;128879;1254;113520;-63
2023/01/18 11:42:14;;;;;;;35.90;23.90;;;;;;;3.29;79.90;97864.92;128981;1253;114080;-62
2023/01/18 11:45:23;;;;;;;31.00;22.90;;;;;;;3.30;79.98;97871.39;128831;1258;127969;-63
2023/01/18 11:48:47;;;;;;;32.20;21.90;;;;;;;3.32;79.98;97870.41;128810;1253;114910;-62
2023/01/18 11:52:02;;;;;;;37.60;24.30;;;;;;;3.35;79.88;97877.64;128869;1253;113108;-63
2023/01/18 11:55:20;;;;;;;34.40;23.10;;;;;;;3.37;79.99;97880.17;131799;1254;113117;-63
2023/01/18 11:58:27;;;;;;;35.10;22.50;;;;;;;3.37;79.77;97892.02;128880;1257;113585;-63
2023/01/18 12:01:44;;;;;;;35.60;24.50;;;;;;;3.36;79.85;97896.48;128777;1270;128976;-63
2023/01/18 12:05:09;;;;;;;33.30;22.90;;;;;;;3.34;79.72;97900.29;128925;1253;114761;-63
2023/01/18 12:08:38;;;;;;;35.90;23.60;;;;;;;3.32;79.75;97895.83;128994;1257;114033;-63
2023/01/18 12:11:47;;;;;;;35.80;23.30;;;;;;;3.33;79.91;97899.96;129059;1253;113456;-63
2023/01/18 12:15:31;;;;;;;37.90;24.20;;;;;;;3.32;79.56;97900.55;128660;1253;114045;-63
2023/01/18 12:19:20;;;;;;;40.50;27.10;;;;;;;3.30;79.48;97905.98;129009;1268;127579;-63
2023/01/18 12:22:57;;;;;;;42.40;27.50;;;;;;;3.29;79.62;97911.31;128664;1254;115948;-63
2023/01/18 12:26:22;;;;;;;42.30;25.30;;;;;;;3.30;79.71;97919.58;128751;1256;113420;-63
2023/01/18 12:29:45;;;;;;;39.20;25.80;;;;;;;3.31;79.75;97929.19;128874;1253;113420;-63
2023/01/18 12:33:00;;;;;;;36.80;25.10;;;;;;;3.35;79.77;97932.35;128948;1251;113186;-62
2023/01/18 12:36:31;;;;;;;36.30;25.10;;;;;;;3.34;79.61;97938.90;128839;1256;127722;-63
2023/01/18 12:39:54;;;;;;;44.00;28.20;;;;;;;3.35;79.74;97945.39;128992;1251;114039;-63
2023/01/18 12:43:13;;;;;;;44.50;31.50;;;;;;;3.35;79.65;97952.27;129039;1253;113183;-63
2023/01/18 12:46:31;;;;;;;40.80;26.90;;;;;;;3.37;79.77;97953.77;131960;1251;114045;-63
2023/01/18 12:49:46;;;;;;;46.10;30.10;;;;;;;3.36;79.45;97956.61;128991;1251;113260;-63
2023/01/18 12:52:58;;;;;;;43.10;29.30;;;;;;;3.36;79.54;97961.91;128989;1255;127768;-62
2023/01/18 12:56:15;;;;;;;42.90;27.90;;;;;;;3.35;79.41;97971.33;128995;1255;115881;-63
2023/01/18 12:59:43;;;;;;;37.00;24.80;;;;;;;3.32;79.25;97977.09;128863;1256;113628;-65
2023/01/18 13:02:49;;;;;;;43.30;28.90;;;;;;;3.31;79.34;97981.59;128910;1256;113233;-64
2023/01/18 13:06:00;;;;;;;41.00;27.80;;;;;;;3.32;79.43;97986.51;128877;1251;113568;-64
2023/01/18 13:09:15;;;;;;;44.00;28.60;;;;;;;3.33;79.55;97991.73;128820;1251;127895;-64
2023/01/18 13:12:23;;;;;;;41.70;28.70;;;;;;;3.36;79.54;97998.26;128847;1251;114847;-63
2023/01/18 13:16:11;;;;;;;57.40;36.30;;;;;;;3.41;79.84;98006.45;128843;1256;113445;-62
2023/01/18 13:19:39;;;;;;;52.70;33.00;;;;;;;3.45;79.52;98015.41;128255;1259;113658;-63
2023/01/18 13:22:58;;;;;;;44.40;30.70;;;;;;;3.48;79.66;98026.86;128264;1258;113334;-64
2023/01/18 13:26:26;;;;;;;39.40;27.60;;;;;;;3.52;79.54;98033.17;128219;1262;126713;-63
2023/01/18 13:29:32;;;;;;;42.90;28.10;;;;;;;3.55;79.54;98038.12;128147;1262;114839;-63
2023/01/18 13:32:43;;;;;;;43.40;28.40;;;;;;;3.57;79.59;98043.64;128511;1259;113407;-64
2023/01/18 13:36:06;;;;;;;42.20;26.80;;;;;;;3.57;79.45;98050.86;128392;1262;113403;-64
2023/01/18 13:39:22;;;;;;;42.30;27.20;;;;;;;3.58;79.40;98057.91;128437;1259;115339;-62
2023/01/18 13:42:33;;;;;;;42.40;29.20;;;;;;;3.58;79.43;98067.05;128518;1260;128678;-61
2023/01/18 13:46:04;;;;;;;48.00;32.40;;;;;;;3.58;79.48;98074.09;128417;1257;115077;-63
2023/01/18 13:49:37;;;;;;;93.80;58.00;;;;;;;3.59;79.36;98077.59;128482;1259;113352;-63
2023/01/18 13:52:43;;;;;;;60.00;39.40;;;;;;;3.57;79.20;98084.96;128404;1259;113395;-63
2023/01/18 13:56:00;;;;;;;42.70;28.10;;;;;;;3.55;79.16;98089.83;128530;1261;113368;-62
2023/01/18 13:59:10;;;;;;;39.10;26.50;;;;;;;3.53;79.16;98094.19;128944;1253;128667;-64
2023/01/18 14:02:33;;;;;;;43.40;27.90;;;;;;;3.50;79.22;98105.08;129031;1251;114813;-62
2023/01/18 14:05:45;;;;;;;41.30;27.20;;;;;;;3.49;78.95;98112.56;129246;1255;113138;-64
2023/01/18 14:08:55;;;;;;;47.60;29.70;;;;;;;3.47;78.95;98118.50;129390;1257;113194;-65
2023/01/18 14:12:01;;;;;;;45.30;28.50;;;;;;;3.46;79.23;98122.77;129295;1251;113461;-64
2023/01/18 14:15:21;;;;;;;42.70;28.50;;;;;;;3.46;79.11;98129.17;129376;1254;127726;-64
2023/01/18 14:18:31;;;;;;;42.50;27.50;;;;;;;3.43;79.11;98135.66;129215;1256;114689;-64
2023/01/18 14:22:12;;;;;;;42.80;29.20;;;;;;;3.41;79.15;98137.88;129090;1255;113464;-63
2023/01/18 14:26:00;;;;;;;45.20;28.70;;;;;;;3.40;79.12;98150.64;128380;1261;114083;-63
2023/01/18 14:29:12;;;;;;;50.90;31.40;;;;;;;3.38;79.16;98163.82;128350;1259;115336;-64
2023/01/18 14:32:26;;;;;;;54.20;32.50;;;;;;;3.37;79.10;98173.94;128386;1263;128609;-64
2023/01/18 14:35:33;;;;;;;45.40;30.70;;;;;;;3.35;79.16;98179.00;128198;1259;115970;-64
2023/01/18 14:38:42;;;;;;;53.90;33.20;;;;;;;3.33;79.19;98183.85;128361;1259;113533;-65
2023/01/18 14:42:03;;;;;;;51.20;32.40;;;;;;;3.32;79.36;98192.73;128359;1263;113378;-63
2023/01/18 14:45:25;;;;;;;54.50;34.10;;;;;;;3.32;79.34;98199.45;128548;1262;114257;-64
2023/01/18 14:48:33;;;;;;;55.70;34.40;;;;;;;3.30;79.29;98202.91;129846;1259;128530;-64
2023/01/18 14:51:39;;;;;;;62.90;36.10;;;;;;;3.28;79.28;98209.68;128623;1259;113786;-63
2023/01/18 14:54:53;;;;;;;55.40;33.70;;;;;;;3.28;79.43;98210.80;128391;1266;113450;-65
2023/01/18 14:58:18;;;;;;;56.40;34.30;;;;;;;3.25;79.22;98217.11;128396;1259;113422;-64
2023/01/18 15:01:34;;;;;;;59.50;35.80;;;;;;;3.23;79.22;98218.77;128280;1259;113369;-64
2023/01/18 15:04:44;;;;;;;65.80;39.20;;;;;;;3.18;79.28;98215.69;128917;1256;127751;-64
2023/01/18 15:07:56;;;;;;;80.60;50.60;;;;;;;3.13;79.25;98216.67;128861;1251;114045;-65